sensor_id;sensor_type;location;lat;lon;timestamp;temperature;humidity
58809;DHT22;44579;51.672;7.834;2022-12-24T00:00:37;11.00;96.00
58809;DHT22;44579;51.672;7.834;2022-12-24T00:03:04;11.00;96.00
58809;DHT22;44579;51.672;7.834;2022-12-24T00:05:31;11.00;96.00
58809;DHT22;44579;51.672;7.834;2022-12-24T00:07:58;11.00;96.00
58809;DHT22;44579;51.672;7.834;2022-12-24T00:10:25;11.00;96.00
58809;DHT22;44579;51.672;7.834;2022-12-24T00:12:51;11.00;96.00
58809;DHT22;44579;51.672;7.834;2022-12-24T00:15:18;10.90;95.90
58809;DHT22;44579;51.672;7.834;2022-12-24T00:17:45;10.90;95.90
58809;DHT22;44579;51.672;7.834;2022-12-24T00:20:14;11.00;96.00
58809;DHT22;44579;51.672;7.834;2022-12-24T00:22:41;11.00;96.00
58809;DHT22;44579;51.672;7.834;2022-12-24T00:25:08;11.00;96.00
58809;DHT22;44579;51.672;7.834;2022-12-24T00:27:35;10.90;95.90
58809;DHT22;44579;51.672;7.834;2022-12-24T00:30:01;10.90;95.90
58809;DHT22;44579;51.672;7.834;2022-12-24T00:32:28;10.90;95.90
58809;DHT22;44579;51.672;7.834;2022-12-24T00:34:55;10.90;96.00
58809;DHT22;44579;51.672;7.834;2022-12-24T00:37:22;10.90;96.00
58809;DHT22;44579;51.672;7.834;2022-12-24T00:39:48;11.00;96.00
58809;DHT22;44579;51.672;7.834;2022-12-24T00:42:15;10.90;96.00
58809;DHT22;44579;51.672;7.834;2022-12-24T00:44:42;11.00;96.00
58809;DHT22;44579;51.672;7.834;2022-12-24T00:47:08;10.90;96.00
58809;DHT22;44579;51.672;7.834;2022-12-24T00:49:37;10.90;96.00
58809;DHT22;44579;51.672;7.834;2022-12-24T00:52:04;10.90;96.00
58809;DHT22;44579;51.672;7.834;2022-12-24T00:54:31;10.80;95.90
58809;DHT22;44579;51.672;7.834;2022-12-24T00:56:58;10.80;95.90
58809;DHT22;44579;51.672;7.834;2022-12-24T00:59:25;10.70;95.90
58809;DHT22;44579;51.672;7.834;2022-12-24T01:01:51;10.70;95.90
58809;DHT22;44579;51.672;7.834;2022-12-24T01:04:18;10.70;96.00
58809;DHT22;44579;51.672;7.834;2022-12-24T01:07:04;10.70;95.90
58809;DHT22;44579;51.672;7.834;2022-12-24T01:09:31;10.70;96.00
58809;DHT22;44579;51.672;7.834;2022-12-24T01:11:57;10.60;95.90
58809;DHT22;44579;51.672;7.834;2022-12-24T01:14:24;10.70;95.90
58809;DHT22;44579;51.672;7.834;2022-12-24T01:16:51;10.70;95.90
58809;DHT22;44579;51.672;7.834;2022-12-24T01:19:18;10.70;95.90
58809;DHT22;44579;51.672;7.834;2022-12-24T01:21:44;10.70;95.90
58809;DHT22;44579;51.672;7.834;2022-12-24T01:24:14;10.70;96.20
58809;DHT22;44579;51.672;7.834;2022-12-24T01:26:42;10.70;95.90
58809;DHT22;44579;51.672;7.834;2022-12-24T01:29:09;10.70;95.80
58809;DHT22;44579;51.672;7.834;2022-12-24T01:31:35;10.70;95.80
58809;DHT22;44579;51.672;7.834;2022-12-24T01:34:03;10.70;95.90
58809;DHT22;44579;51.672;7.834;2022-12-24T01:36:29;10.70;95.80
58809;DHT22;44579;51.672;7.834;2022-12-24T01:38:56;10.80;95.80
58809;DHT22;44579;51.672;7.834;2022-12-24T01:41:23;10.70;95.80
58809;DHT22;44579;51.672;7.834;2022-12-24T01:46:48;10.70;95.80
58809;DHT22;44579;51.672;7.834;2022-12-24T01:49:16;10.70;95.80
58809;DHT22;44579;51.672;7.834;2022-12-24T01:51:53;10.70;95.80
58809;DHT22;44579;51.672;7.834;2022-12-24T01:54:29;10.70;95.80
58809;DHT22;44579;51.672;7.834;2022-12-24T01:56:58;10.70;95.80
58809;DHT22;44579;51.672;7.834;2022-12-24T01:59:42;10.80;95.80
58809;DHT22;44579;51.672;7.834;2022-12-24T02:02:21;10.80;95.80
58809;DHT22;44579;51.672;7.834;2022-12-24T02:05:09;10.80;95.70
58809;DHT22;44579;51.672;7.834;2022-12-24T02:07:47;10.80;95.70
58809;DHT22;44579;51.672;7.834;2022-12-24T02:10:34;10.70;95.70
58809;DHT22;44579;51.672;7.834;2022-12-24T02:16:33;10.70;95.70
58809;DHT22;44579;51.672;7.834;2022-12-24T02:21:33;10.70;95.80
58809;DHT22;44579;51.672;7.834;2022-12-24T02:32:44;10.60;95.70
58809;DHT22;44579;51.672;7.834;2022-12-24T02:35:15;10.60;95.70
58809;DHT22;44579;51.672;7.834;2022-12-24T02:37:49;10.70;95.80
58809;DHT22;44579;51.672;7.834;2022-12-24T02:44:06;10.60;95.70
58809;DHT22;44579;51.672;7.834;2022-12-24T02:46:33;10.60;95.70
58809;DHT22;44579;51.672;7.834;2022-12-24T02:49:03;10.60;95.70
58809;DHT22;44579;51.672;7.834;2022-12-24T02:51:54;10.60;95.70
58809;DHT22;44579;51.672;7.834;2022-12-24T02:54:35;10.60;95.70
58809;DHT22;44579;51.672;7.834;2022-12-24T03:08:35;10.70;95.80
58809;DHT22;44579;51.672;7.834;2022-12-24T03:11:08;10.70;95.80
58809;DHT22;44579;51.672;7.834;2022-12-24T03:13:36;10.70;95.70
58809;DHT22;44579;51.672;7.834;2022-12-24T03:16:04;10.70;95.70
58809;DHT22;44579;51.672;7.834;2022-12-24T03:18:32;10.70;95.70
58809;DHT22;44579;51.672;7.834;2022-12-24T03:21:05;10.60;95.70
58809;DHT22;44579;51.672;7.834;2022-12-24T03:23:33;10.60;95.70
58809;DHT22;44579;51.672;7.834;2022-12-24T03:26:00;10.60;95.70
58809;DHT22;44579;51.672;7.834;2022-12-24T03:28:30;10.60;95.70
58809;DHT22;44579;51.672;7.834;2022-12-24T03:30:59;10.50;95.70
58809;DHT22;44579;51.672;7.834;2022-12-24T03:33:27;10.50;95.70
58809;DHT22;44579;51.672;7.834;2022-12-24T03:35:54;10.60;95.70
58809;DHT22;44579;51.672;7.834;2022-12-24T03:38:21;10.60;95.70
58809;DHT22;44579;51.672;7.834;2022-12-24T03:40:48;10.50;96.10
58809;DHT22;44579;51.672;7.834;2022-12-24T03:43:18;10.60;95.70
58809;DHT22;44579;51.672;7.834;2022-12-24T03:45:48;10.50;95.70
58809;DHT22;44579;51.672;7.834;2022-12-24T03:48:18;10.60;95.70
58809;DHT22;44579;51.672;7.834;2022-12-24T03:50:45;10.60;95.70
58809;DHT22;44579;51.672;7.834;2022-12-24T03:53:12;10.60;95.70
58809;DHT22;44579;51.672;7.834;2022-12-24T03:55:39;10.50;95.60
58809;DHT22;44579;51.672;7.834;2022-12-24T03:58:06;10.50;95.60
58809;DHT22;44579;51.672;7.834;2022-12-24T04:00:33;10.50;95.70
58809;DHT22;44579;51.672;7.834;2022-12-24T04:03:00;10.60;95.70
58809;DHT22;44579;51.672;7.834;2022-12-24T04:05:28;10.50;95.60
58809;DHT22;44579;51.672;7.834;2022-12-24T04:07:54;10.50;95.60
58809;DHT22;44579;51.672;7.834;2022-12-24T04:10:21;10.50;95.60
58809;DHT22;44579;51.672;7.834;2022-12-24T04:12:48;10.40;95.60
58809;DHT22;44579;51.672;7.834;2022-12-24T04:15:15;10.40;95.50
58809;DHT22;44579;51.672;7.834;2022-12-24T04:17:42;10.30;95.50
58809;DHT22;44579;51.672;7.834;2022-12-24T04:20:09;10.30;95.60
58809;DHT22;44579;51.672;7.834;2022-12-24T04:22:36;10.30;95.60
58809;DHT22;44579;51.672;7.834;2022-12-24T04:25:03;10.30;95.60
58809;DHT22;44579;51.672;7.834;2022-12-24T04:27:31;10.30;95.60
58809;DHT22;44579;51.672;7.834;2022-12-24T04:29:58;10.30;95.60
58809;DHT22;44579;51.672;7.834;2022-12-24T04:32:25;10.30;95.60
58809;DHT22;44579;51.672;7.834;2022-12-24T04:34:55;10.40;95.60
58809;DHT22;44579;51.672;7.834;2022-12-24T04:37:21;10.40;95.60
58809;DHT22;44579;51.672;7.834;2022-12-24T04:39:48;10.40;95.60
58809;DHT22;44579;51.672;7.834;2022-12-24T04:42:16;10.40;95.60
58809;DHT22;44579;51.672;7.834;2022-12-24T04:44:43;10.50;95.60
58809;DHT22;44579;51.672;7.834;2022-12-24T04:47:09;10.50;95.60
58809;DHT22;44579;51.672;7.834;2022-12-24T04:49:36;10.50;95.60
58809;DHT22;44579;51.672;7.834;2022-12-24T04:52:03;10.50;95.60
58809;DHT22;44579;51.672;7.834;2022-12-24T04:54:30;10.50;95.60
58809;DHT22;44579;51.672;7.834;2022-12-24T04:56:57;10.50;95.60
58809;DHT22;44579;51.672;7.834;2022-12-24T04:59:24;10.50;95.60
58809;DHT22;44579;51.672;7.834;2022-12-24T05:01:51;10.50;95.60
58809;DHT22;44579;51.672;7.834;2022-12-24T05:04:18;10.50;95.60
58809;DHT22;44579;51.672;7.834;2022-12-24T05:06:45;10.50;95.60
58809;DHT22;44579;51.672;7.834;2022-12-24T05:09:12;10.50;95.60
58809;DHT22;44579;51.672;7.834;2022-12-24T05:11:39;10.50;95.60
58809;DHT22;44579;51.672;7.834;2022-12-24T05:14:06;10.50;95.60
58809;DHT22;44579;51.672;7.834;2022-12-24T05:16:32;10.50;95.60
58809;DHT22;44579;51.672;7.834;2022-12-24T05:18:59;10.50;95.60
58809;DHT22;44579;51.672;7.834;2022-12-24T05:21:26;10.50;95.60
58809;DHT22;44579;51.672;7.834;2022-12-24T05:23:53;10.50;95.60
58809;DHT22;44579;51.672;7.834;2022-12-24T05:26:47;10.50;95.60
58809;DHT22;44579;51.672;7.834;2022-12-24T05:29:15;10.50;95.60
58809;DHT22;44579;51.672;7.834;2022-12-24T05:31:42;10.50;95.60
58809;DHT22;44579;51.672;7.834;2022-12-24T05:34:11;10.50;95.60
58809;DHT22;44579;51.672;7.834;2022-12-24T05:36:38;10.50;95.60
58809;DHT22;44579;51.672;7.834;2022-12-24T05:39:05;10.50;95.60
58809;DHT22;44579;51.672;7.834;2022-12-24T05:41:40;10.50;95.60
58809;DHT22;44579;51.672;7.834;2022-12-24T05:44:07;10.50;95.60
58809;DHT22;44579;51.672;7.834;2022-12-24T05:46:34;10.50;95.60
58809;DHT22;44579;51.672;7.834;2022-12-24T05:49:01;10.60;95.60
58809;DHT22;44579;51.672;7.834;2022-12-24T05:51:28;10.50;95.60
58809;DHT22;44579;51.672;7.834;2022-12-24T05:53:55;10.50;95.60
58809;DHT22;44579;51.672;7.834;2022-12-24T05:56:22;10.50;95.60
58809;DHT22;44579;51.672;7.834;2022-12-24T05:58:50;10.50;95.60
58809;DHT22;44579;51.672;7.834;2022-12-24T06:01:18;10.60;95.60
58809;DHT22;44579;51.672;7.834;2022-12-24T06:03:45;10.60;96.00
58809;DHT22;44579;51.672;7.834;2022-12-24T06:06:14;10.60;95.60
58809;DHT22;44579;51.672;7.834;2022-12-24T06:08:41;10.60;95.60
58809;DHT22;44579;51.672;7.834;2022-12-24T06:11:09;10.60;95.60
58809;DHT22;44579;51.672;7.834;2022-12-24T06:13:37;10.60;95.60
58809;DHT22;44579;51.672;7.834;2022-12-24T06:16:05;10.60;95.60
58809;DHT22;44579;51.672;7.834;2022-12-24T06:18:33;10.60;96.00
58809;DHT22;44579;51.672;7.834;2022-12-24T06:21:00;10.60;95.60
58809;DHT22;44579;51.672;7.834;2022-12-24T06:23:28;10.60;95.60
58809;DHT22;44579;51.672;7.834;2022-12-24T06:25:56;10.60;95.60
58809;DHT22;44579;51.672;7.834;2022-12-24T06:28:23;10.60;95.60
58809;DHT22;44579;51.672;7.834;2022-12-24T06:30:50;10.60;95.60
58809;DHT22;44579;51.672;7.834;2022-12-24T06:33:26;10.60;95.60
58809;DHT22;44579;51.672;7.834;2022-12-24T06:35:53;10.50;95.60
58809;DHT22;44579;51.672;7.834;2022-12-24T06:38:20;10.60;95.60
58809;DHT22;44579;51.672;7.834;2022-12-24T06:40:47;10.60;95.60
58809;DHT22;44579;51.672;7.834;2022-12-24T06:43:15;10.50;95.60
58809;DHT22;44579;51.672;7.834;2022-12-24T06:45:46;10.60;95.70
58809;DHT22;44579;51.672;7.834;2022-12-24T06:48:13;10.60;95.70
58809;DHT22;44579;51.672;7.834;2022-12-24T06:50:41;10.60;95.60
58809;DHT22;44579;51.672;7.834;2022-12-24T06:53:08;10.50;95.60
58809;DHT22;44579;51.672;7.834;2022-12-24T06:55:35;10.50;95.60
58809;DHT22;44579;51.672;7.834;2022-12-24T06:58:02;10.50;95.60
58809;DHT22;44579;51.672;7.834;2022-12-24T07:00:29;10.50;95.60
58809;DHT22;44579;51.672;7.834;2022-12-24T07:02:57;10.50;95.60
58809;DHT22;44579;51.672;7.834;2022-12-24T07:05:24;10.40;95.50
58809;DHT22;44579;51.672;7.834;2022-12-24T07:07:51;10.40;95.50
58809;DHT22;44579;51.672;7.834;2022-12-24T07:10:18;10.40;95.60
58809;DHT22;44579;51.672;7.834;2022-12-24T07:12:46;10.40;95.60
58809;DHT22;44579;51.672;7.834;2022-12-24T07:15:13;10.40;95.60
58809;DHT22;44579;51.672;7.834;2022-12-24T07:17:40;10.40;95.60
58809;DHT22;44579;51.672;7.834;2022-12-24T07:20:09;10.40;95.60
58809;DHT22;44579;51.672;7.834;2022-12-24T07:22:37;10.40;95.60
58809;DHT22;44579;51.672;7.834;2022-12-24T07:25:04;10.40;95.60
58809;DHT22;44579;51.672;7.834;2022-12-24T07:27:31;10.40;95.60
58809;DHT22;44579;51.672;7.834;2022-12-24T07:29:58;10.50;95.60
58809;DHT22;44579;51.672;7.834;2022-12-24T07:32:25;10.50;95.60
58809;DHT22;44579;51.672;7.834;2022-12-24T07:34:52;10.50;95.60
58809;DHT22;44579;51.672;7.834;2022-12-24T07:37:19;10.50;95.60
58809;DHT22;44579;51.672;7.834;2022-12-24T07:39:45;10.50;95.60
58809;DHT22;44579;51.672;7.834;2022-12-24T07:42:12;10.50;95.60
58809;DHT22;44579;51.672;7.834;2022-12-24T07:44:39;10.50;95.60
58809;DHT22;44579;51.672;7.834;2022-12-24T07:47:06;10.50;95.60
58809;DHT22;44579;51.672;7.834;2022-12-24T07:49:33;10.50;95.60
58809;DHT22;44579;51.672;7.834;2022-12-24T07:52:02;10.50;95.70
58809;DHT22;44579;51.672;7.834;2022-12-24T07:54:30;10.50;95.60
58809;DHT22;44579;51.672;7.834;2022-12-24T07:56:56;10.60;96.10
58809;DHT22;44579;51.672;7.834;2022-12-24T07:59:24;10.60;95.70
58809;DHT22;44579;51.672;7.834;2022-12-24T08:01:51;10.60;95.70
58809;DHT22;44579;51.672;7.834;2022-12-24T08:04:18;10.60;95.70
58809;DHT22;44579;51.672;7.834;2022-12-24T08:06:45;10.60;95.70
58809;DHT22;44579;51.672;7.834;2022-12-24T08:09:12;10.60;95.70
58809;DHT22;44579;51.672;7.834;2022-12-24T08:11:40;10.60;95.60
58809;DHT22;44579;51.672;7.834;2022-12-24T08:14:15;10.60;95.70
58809;DHT22;44579;51.672;7.834;2022-12-24T08:16:42;10.60;95.70
58809;DHT22;44579;51.672;7.834;2022-12-24T08:19:09;10.60;95.70
58809;DHT22;44579;51.672;7.834;2022-12-24T08:21:36;10.60;95.70
58809;DHT22;44579;51.672;7.834;2022-12-24T08:24:02;10.60;95.70
58809;DHT22;44579;51.672;7.834;2022-12-24T08:26:29;10.60;95.70
58809;DHT22;44579;51.672;7.834;2022-12-24T08:28:56;10.60;95.80
58809;DHT22;44579;51.672;7.834;2022-12-24T08:31:25;10.60;95.80
58809;DHT22;44579;51.672;7.834;2022-12-24T08:33:52;10.60;95.80
58809;DHT22;44579;51.672;7.834;2022-12-24T08:36:20;10.60;95.80
58809;DHT22;44579;51.672;7.834;2022-12-24T08:38:47;10.70;95.80
58809;DHT22;44579;51.672;7.834;2022-12-24T08:41:14;10.70;95.80
58809;DHT22;44579;51.672;7.834;2022-12-24T08:43:41;10.70;95.80
58809;DHT22;44579;51.672;7.834;2022-12-24T08:46:08;10.70;95.80
58809;DHT22;44579;51.672;7.834;2022-12-24T08:48:35;10.70;95.80
58809;DHT22;44579;51.672;7.834;2022-12-24T08:51:08;10.70;95.80
58809;DHT22;44579;51.672;7.834;2022-12-24T08:53:35;10.70;95.80
58809;DHT22;44579;51.672;7.834;2022-12-24T08:56:03;10.70;95.80
58809;DHT22;44579;51.672;7.834;2022-12-24T08:58:31;10.80;95.90
58809;DHT22;44579;51.672;7.834;2022-12-24T09:00:58;10.80;95.90
58809;DHT22;44579;51.672;7.834;2022-12-24T09:03:26;10.80;95.90
58809;DHT22;44579;51.672;7.834;2022-12-24T09:05:54;10.90;95.90
58809;DHT22;44579;51.672;7.834;2022-12-24T09:08:21;10.90;95.90
58809;DHT22;44579;51.672;7.834;2022-12-24T09:10:48;10.90;95.90
58809;DHT22;44579;51.672;7.834;2022-12-24T09:13:15;10.90;95.90
58809;DHT22;44579;51.672;7.834;2022-12-24T09:15:51;10.90;95.90
58809;DHT22;44579;51.672;7.834;2022-12-24T09:18:18;10.90;96.00
58809;DHT22;44579;51.672;7.834;2022-12-24T09:20:44;10.90;96.00
58809;DHT22;44579;51.672;7.834;2022-12-24T09:23:13;10.90;96.00
58809;DHT22;44579;51.672;7.834;2022-12-24T09:25:40;10.90;96.00
58809;DHT22;44579;51.672;7.834;2022-12-24T09:28:08;11.00;96.10
58809;DHT22;44579;51.672;7.834;2022-12-24T09:30:35;11.00;96.10
58809;DHT22;44579;51.672;7.834;2022-12-24T09:33:02;11.00;96.10
58809;DHT22;44579;51.672;7.834;2022-12-24T09:35:29;11.00;96.10
58809;DHT22;44579;51.672;7.834;2022-12-24T09:37:55;11.00;96.10
58809;DHT22;44579;51.672;7.834;2022-12-24T09:40:32;11.00;96.10
58809;DHT22;44579;51.672;7.834;2022-12-24T09:43:01;11.00;96.20
58809;DHT22;44579;51.672;7.834;2022-12-24T09:45:30;11.00;96.10
58809;DHT22;44579;51.672;7.834;2022-12-24T09:48:20;11.00;96.10
58809;DHT22;44579;51.672;7.834;2022-12-24T09:50:52;11.00;96.10
58809;DHT22;44579;51.672;7.834;2022-12-24T09:55:51;11.10;96.20
58809;DHT22;44579;51.672;7.834;2022-12-24T09:59:08;11.00;96.20
58809;DHT22;44579;51.672;7.834;2022-12-24T10:01:10;11.10;96.20
58809;DHT22;44579;51.672;7.834;2022-12-24T10:03:37;11.10;96.20
58809;DHT22;44579;51.672;7.834;2022-12-24T10:06:06;11.10;96.20
58809;DHT22;44579;51.672;7.834;2022-12-24T10:08:39;11.20;96.20
58809;DHT22;44579;51.672;7.834;2022-12-24T10:13:58;11.20;96.20
58809;DHT22;44579;51.672;7.834;2022-12-24T10:16:28;11.20;96.20
58809;DHT22;44579;51.672;7.834;2022-12-24T10:19:02;11.30;96.20
58809;DHT22;44579;51.672;7.834;2022-12-24T10:21:34;11.30;96.30
58809;DHT22;44579;51.672;7.834;2022-12-24T10:24:10;11.30;96.30
58809;DHT22;44579;51.672;7.834;2022-12-24T10:26:49;11.30;96.30
58809;DHT22;44579;51.672;7.834;2022-12-24T10:29:17;11.30;96.40
58809;DHT22;44579;51.672;7.834;2022-12-24T10:31:51;11.40;96.40
58809;DHT22;44579;51.672;7.834;2022-12-24T10:34:21;11.40;96.40
58809;DHT22;44579;51.672;7.834;2022-12-24T10:36:48;11.30;96.40
58809;DHT22;44579;51.672;7.834;2022-12-24T10:39:19;11.30;96.40
58809;DHT22;44579;51.672;7.834;2022-12-24T10:41:47;11.30;96.40
58809;DHT22;44579;51.672;7.834;2022-12-24T10:44:16;11.30;96.40
58809;DHT22;44579;51.672;7.834;2022-12-24T10:46:43;11.30;96.50
58809;DHT22;44579;51.672;7.834;2022-12-24T10:49:12;11.40;96.50
58809;DHT22;44579;51.672;7.834;2022-12-24T10:51:50;11.40;96.50
58809;DHT22;44579;51.672;7.834;2022-12-24T10:54:19;11.40;96.50
58809;DHT22;44579;51.672;7.834;2022-12-24T10:56:55;11.40;96.40
58809;DHT22;44579;51.672;7.834;2022-12-24T10:59:23;11.40;96.40
58809;DHT22;44579;51.672;7.834;2022-12-24T11:01:51;11.40;96.40
58809;DHT22;44579;51.672;7.834;2022-12-24T11:04:19;11.40;96.50
58809;DHT22;44579;51.672;7.834;2022-12-24T11:07:21;11.40;96.40
58809;DHT22;44579;51.672;7.834;2022-12-24T11:09:40;11.50;96.50
58809;DHT22;44579;51.672;7.834;2022-12-24T11:12:19;11.50;96.50
58809;DHT22;44579;51.672;7.834;2022-12-24T11:14:58;11.50;96.50
58809;DHT22;44579;51.672;7.834;2022-12-24T11:17:25;11.50;96.50
58809;DHT22;44579;51.672;7.834;2022-12-24T11:19:52;11.60;96.40
58809;DHT22;44579;51.672;7.834;2022-12-24T11:24:56;11.60;96.40
58809;DHT22;44579;51.672;7.834;2022-12-24T11:30:12;11.60;96.30
58809;DHT22;44579;51.672;7.834;2022-12-24T11:32:41;11.50;96.30
58809;DHT22;44579;51.672;7.834;2022-12-24T11:35:13;11.50;96.30
58809;DHT22;44579;51.672;7.834;2022-12-24T11:37:41;11.50;96.30
58809;DHT22;44579;51.672;7.834;2022-12-24T11:40:18;11.50;96.30
58809;DHT22;44579;51.672;7.834;2022-12-24T11:42:45;11.50;96.30
58809;DHT22;44579;51.672;7.834;2022-12-24T11:45:23;11.50;96.30
58809;DHT22;44579;51.672;7.834;2022-12-24T11:47:50;11.50;96.40
58809;DHT22;44579;51.672;7.834;2022-12-24T11:55:46;11.60;96.50
58809;DHT22;44579;51.672;7.834;2022-12-24T11:58:31;11.60;96.40
58809;DHT22;44579;51.672;7.834;2022-12-24T12:01:08;11.60;96.40
58809;DHT22;44579;51.672;7.834;2022-12-24T12:03:45;11.60;96.40
58809;DHT22;44579;51.672;7.834;2022-12-24T12:06:36;11.60;96.40
58809;DHT22;44579;51.672;7.834;2022-12-24T12:09:18;11.60;96.40
58809;DHT22;44579;51.672;7.834;2022-12-24T12:11:47;11.50;96.30
58809;DHT22;44579;51.672;7.834;2022-12-24T12:14:20;11.50;96.20
58809;DHT22;44579;51.672;7.834;2022-12-24T12:16:56;11.50;96.30
58809;DHT22;44579;51.672;7.834;2022-12-24T12:19:27;11.50;96.30
58809;DHT22;44579;51.672;7.834;2022-12-24T12:21:54;11.50;96.30
58809;DHT22;44579;51.672;7.834;2022-12-24T12:24:23;11.50;96.80
58809;DHT22;44579;51.672;7.834;2022-12-24T12:27:15;11.50;96.30
58809;DHT22;44579;51.672;7.834;2022-12-24T12:29:46;11.50;96.30
58809;DHT22;44579;51.672;7.834;2022-12-24T12:35:14;11.60;96.30
58809;DHT22;44579;51.672;7.834;2022-12-24T12:37:43;11.70;96.30
58809;DHT22;44579;51.672;7.834;2022-12-24T12:40:12;11.70;96.30
58809;DHT22;44579;51.672;7.834;2022-12-24T12:42:39;11.70;96.30
58809;DHT22;44579;51.672;7.834;2022-12-24T12:45:19;11.70;96.30
58809;DHT22;44579;51.672;7.834;2022-12-24T12:47:51;11.70;96.30
58809;DHT22;44579;51.672;7.834;2022-12-24T12:50:31;11.70;96.30
58809;DHT22;44579;51.672;7.834;2022-12-24T12:58:03;11.80;96.40
58809;DHT22;44579;51.672;7.834;2022-12-24T13:00:32;11.90;96.40
58809;DHT22;44579;51.672;7.834;2022-12-24T13:13:29;11.80;96.30
58809;DHT22;44579;51.672;7.834;2022-12-24T13:18:43;11.80;96.30
58809;DHT22;44579;51.672;7.834;2022-12-24T13:21:19;11.80;96.30
58809;DHT22;44579;51.672;7.834;2022-12-24T13:23:46;11.70;96.30
58809;DHT22;44579;51.672;7.834;2022-12-24T13:26:13;11.70;96.30
58809;DHT22;44579;51.672;7.834;2022-12-24T13:28:41;11.70;96.30
58809;DHT22;44579;51.672;7.834;2022-12-24T13:33:51;11.70;96.30
58809;DHT22;44579;51.672;7.834;2022-12-24T13:36:20;11.60;96.20
58809;DHT22;44579;51.672;7.834;2022-12-24T13:38:56;11.60;96.20
58809;DHT22;44579;51.672;7.834;2022-12-24T13:51:44;11.70;96.20
58809;DHT22;44579;51.672;7.834;2022-12-24T13:54:11;11.70;96.20
58809;DHT22;44579;51.672;7.834;2022-12-24T13:56:39;11.70;96.20
58809;DHT22;44579;51.672;7.834;2022-12-24T13:59:25;11.70;96.20
58809;DHT22;44579;51.672;7.834;2022-12-24T14:01:53;11.70;96.20
58809;DHT22;44579;51.672;7.834;2022-12-24T14:04:24;11.70;96.20
58809;DHT22;44579;51.672;7.834;2022-12-24T14:06:51;11.70;96.20
58809;DHT22;44579;51.672;7.834;2022-12-24T14:09:21;11.70;96.20
58809;DHT22;44579;51.672;7.834;2022-12-24T14:14:42;11.60;96.10
58809;DHT22;44579;51.672;7.834;2022-12-24T14:17:22;11.60;96.10
58809;DHT22;44579;51.672;7.834;2022-12-24T14:19:54;11.50;96.10
58809;DHT22;44579;51.672;7.834;2022-12-24T14:24:58;11.50;96.00
58809;DHT22;44579;51.672;7.834;2022-12-24T14:29:59;11.40;96.00
58809;DHT22;44579;51.672;7.834;2022-12-24T14:32:32;11.40;96.00
58809;DHT22;44579;51.672;7.834;2022-12-24T14:37:39;11.30;95.90
58809;DHT22;44579;51.672;7.834;2022-12-24T14:40:07;11.30;95.90
58809;DHT22;44579;51.672;7.834;2022-12-24T14:42:43;11.20;95.80
58809;DHT22;44579;51.672;7.834;2022-12-24T14:45:16;11.20;95.80
58809;DHT22;44579;51.672;7.834;2022-12-24T14:47:57;11.10;95.80
58809;DHT22;44579;51.672;7.834;2022-12-24T14:53:17;11.00;95.70
58809;DHT22;44579;51.672;7.834;2022-12-24T14:55:46;10.90;95.60
58809;DHT22;44579;51.672;7.834;2022-12-24T14:58:32;10.80;95.60
58809;DHT22;44579;51.672;7.834;2022-12-24T15:01:00;10.80;95.60
58809;DHT22;44579;51.672;7.834;2022-12-24T15:03:30;10.70;95.60
58809;DHT22;44579;51.672;7.834;2022-12-24T15:05:58;10.70;95.70
58809;DHT22;44579;51.672;7.834;2022-12-24T15:08:30;10.70;95.80
58809;DHT22;44579;51.672;7.834;2022-12-24T15:10:59;10.60;95.70
58809;DHT22;44579;51.672;7.834;2022-12-24T15:13:36;10.60;95.70
58809;DHT22;44579;51.672;7.834;2022-12-24T15:16:07;10.60;95.70
58809;DHT22;44579;51.672;7.834;2022-12-24T15:18:36;10.60;95.60
58809;DHT22;44579;51.672;7.834;2022-12-24T15:21:04;10.50;95.50
58809;DHT22;44579;51.672;7.834;2022-12-24T15:23:34;10.50;95.40
58809;DHT22;44579;51.672;7.834;2022-12-24T15:26:07;10.40;95.40
58809;DHT22;44579;51.672;7.834;2022-12-24T15:28:36;10.40;95.40
58809;DHT22;44579;51.672;7.834;2022-12-24T15:31:07;10.30;95.50
58809;DHT22;44579;51.672;7.834;2022-12-24T15:33:36;10.30;95.60
58809;DHT22;44579;51.672;7.834;2022-12-24T15:36:04;10.30;95.60
58809;DHT22;44579;51.672;7.834;2022-12-24T15:38:33;10.30;95.60
58809;DHT22;44579;51.672;7.834;2022-12-24T15:41:01;10.30;95.60
58809;DHT22;44579;51.672;7.834;2022-12-24T15:43:28;10.30;95.60
58809;DHT22;44579;51.672;7.834;2022-12-24T15:45:55;10.30;95.60
58809;DHT22;44579;51.672;7.834;2022-12-24T15:48:23;10.30;95.60
58809;DHT22;44579;51.672;7.834;2022-12-24T15:50:52;10.30;95.60
58809;DHT22;44579;51.672;7.834;2022-12-24T15:53:29;10.30;95.50
58809;DHT22;44579;51.672;7.834;2022-12-24T15:56:02;10.30;95.50
58809;DHT22;44579;51.672;7.834;2022-12-24T15:58:30;10.40;95.50
58809;DHT22;44579;51.672;7.834;2022-12-24T16:03:27;10.30;95.50
58809;DHT22;44579;51.672;7.834;2022-12-24T16:06:00;10.40;95.40
58809;DHT22;44579;51.672;7.834;2022-12-24T16:08:28;10.40;95.40
58809;DHT22;44579;51.672;7.834;2022-12-24T16:11:09;10.40;95.40
58809;DHT22;44579;51.672;7.834;2022-12-24T16:13:41;10.30;95.30
58809;DHT22;44579;51.672;7.834;2022-12-24T16:16:09;10.30;95.30
58809;DHT22;44579;51.672;7.834;2022-12-24T16:18:56;10.30;95.30
58809;DHT22;44579;51.672;7.834;2022-12-24T16:23:51;10.20;95.20
58809;DHT22;44579;51.672;7.834;2022-12-24T16:26:18;10.20;95.30
58809;DHT22;44579;51.672;7.834;2022-12-24T16:28:45;10.10;95.30
58809;DHT22;44579;51.672;7.834;2022-12-24T16:31:16;10.10;95.40
58809;DHT22;44579;51.672;7.834;2022-12-24T16:33:45;10.10;95.40
58809;DHT22;44579;51.672;7.834;2022-12-24T16:36:11;10.10;95.30
58809;DHT22;44579;51.672;7.834;2022-12-24T16:38:40;10.10;95.20
58809;DHT22;44579;51.672;7.834;2022-12-24T16:41:46;10.00;95.00
58809;DHT22;44579;51.672;7.834;2022-12-24T16:44:32;10.00;94.90
58809;DHT22;44579;51.672;7.834;2022-12-24T16:46:59;9.90;94.90
58809;DHT22;44579;51.672;7.834;2022-12-24T16:49:28;9.70;94.80
58809;DHT22;44579;51.672;7.834;2022-12-24T16:52:01;9.70;94.80
58809;DHT22;44579;51.672;7.834;2022-12-24T16:54:30;9.70;94.90
58809;DHT22;44579;51.672;7.834;2022-12-24T16:57:02;9.60;94.80
58809;DHT22;44579;51.672;7.834;2022-12-24T16:59:30;9.50;94.80
58809;DHT22;44579;51.672;7.834;2022-12-24T17:01:58;9.50;94.80
58809;DHT22;44579;51.672;7.834;2022-12-24T17:04:32;9.50;94.70
58809;DHT22;44579;51.672;7.834;2022-12-24T17:07:06;9.40;94.80
58809;DHT22;44579;51.672;7.834;2022-12-24T17:09:35;9.30;94.80
58809;DHT22;44579;51.672;7.834;2022-12-24T17:12:04;9.30;94.80
58809;DHT22;44579;51.672;7.834;2022-12-24T17:14:35;9.30;94.70
58809;DHT22;44579;51.672;7.834;2022-12-24T17:17:02;9.20;94.60
58809;DHT22;44579;51.672;7.834;2022-12-24T17:19:40;9.20;94.60
58809;DHT22;44579;51.672;7.834;2022-12-24T17:22:07;9.20;94.60
58809;DHT22;44579;51.672;7.834;2022-12-24T17:24:36;9.10;94.60
58809;DHT22;44579;51.672;7.834;2022-12-24T17:27:03;9.10;94.70
58809;DHT22;44579;51.672;7.834;2022-12-24T17:29:31;9.10;94.80